Time;durP1;ratioP1;P1;durP2;ratioP2;P2;SDS_P1;SDS_P2;PMS_P1;PMS_P2;Temp;Humidity;BMP_temperature;BMP_pressure;BME280_temperature;BME280_humidity;BME280_pressure;Samples;Min_cycle;Max_cycle;Signal;HPM_P1;HPM_P2
2022/01/25 09:42:57;;;;;;;13.68;9.75;;;;;;;17.31;73.73;103358.09;10488475;28;20479;-55
2022/01/25 09:47:57;;;;;;;14.38;10.10;;;;;;;17.31;74.32;103372.03;10490070;28;20039;-56
2022/01/25 09:53:00;;;;;;;13.55;10.05;;;;;;;17.31;74.42;103374.81;10489903;28;20032;-56
2022/01/25 09:58:02;;;;;;;13.27;9.35;;;;;;;17.45;74.36;103375.44;10489739;28;20032;-51
2022/01/25 10:08:15;;;;;;;12.02;8.48;;;;;;;17.31;75.17;103385.94;10487723;28;20060;-49
2022/01/25 10:13:21;;;;;;;12.27;8.82;;;;;;;17.25;75.01;103392.47;10486672;28;20016;-49
2022/01/25 10:18:21;;;;;;;15.23;9.55;;;;;;;17.23;74.97;103389.91;10489035;28;20036;-50
2022/01/25 10:23:25;;;;;;;13.02;7.85;;;;;;;17.36;75.21;103397.19;10484626;28;20119;-52
2022/01/25 10:28:28;;;;;;;13.07;9.30;;;;;;;17.39;74.36;103399.53;10468753;28;20013;-50
2022/01/25 10:33:33;;;;;;;13.35;8.90;;;;;;;17.37;75.28;103384.16;10465039;28;20078;-50
2022/01/25 10:38:34;;;;;;;12.40;8.80;;;;;;;17.25;75.43;103398.03;10465369;28;20127;-51
2022/01/25 10:43:35;;;;;;;15.32;9.93;;;;;;;17.21;75.58;103402.38;10467555;28;20041;-50
2022/01/25 10:48:37;;;;;;;14.95;9.68;;;;;;;17.14;76.36;103408.91;10466022;28;20033;-53
2022/01/25 10:53:37;;;;;;;14.32;9.18;;;;;;;17.11;76.27;103403.78;10438034;28;20028;-53
2022/01/25 10:58:39;;;;;;;11.55;8.35;;;;;;;17.23;77.08;103405.78;10436437;28;20037;-55
2022/01/25 11:03:41;;;;;;;16.08;11.23;;;;;;;17.30;76.59;103395.38;10443763;28;20056;-52
2022/01/25 11:08:43;;;;;;;13.93;10.02;;;;;;;17.12;77.86;103410.22;10436942;28;20032;-54
2022/01/25 11:13:48;;;;;;;13.60;10.25;;;;;;;16.97;78.31;103407.88;10438677;28;20025;-52
2022/01/25 11:18:49;;;;;;;19.83;11.05;;;;;;;16.96;78.72;103405.31;10422929;28;20036;-51
2022/01/25 11:23:49;;;;;;;14.32;10.20;;;;;;;16.89;78.59;103402.63;10418627;28;20380;-49
2022/01/25 11:28:50;;;;;;;13.50;9.60;;;;;;;16.75;78.61;103394.44;10416641;28;20367;-49
2022/01/25 11:33:51;;;;;;;16.83;10.57;;;;;;;16.70;78.48;103385.06;10400005;28;20509;-49
2022/01/25 11:38:53;;;;;;;14.90;9.98;;;;;;;16.63;78.53;103379.63;10416213;28;20050;-51
2022/01/25 11:44:09;;;;;;;15.07;10.20;;;;;;;16.60;78.39;103368.97;10416917;28;20033;-51
2022/01/25 11:56:45;;;;;;;78.13;37.40;;;;;;;4.34;100.00;103364.41;10497611;28;20414;-78
2022/01/25 12:01:49;;;;;;;77.20;35.42;;;;;;;3.79;100.00;103360.63;10473265;28;20036;-78
2022/01/25 12:06:59;;;;;;;82.63;35.85;;;;;;;3.58;100.00;103362.72;10492100;28;20457;-77
2022/01/25 12:12:07;;;;;;;80.07;32.63;;;;;;;3.57;100.00;103366.44;10461226;28;20105;-77
2022/01/25 12:17:18;;;;;;;86.15;36.70;;;;;;;3.55;100.00;103352.09;10470509;28;20032;-77
2022/01/25 12:22:40;;;;;;;85.82;36.65;;;;;;;3.52;100.00;103350.53;10495665;28;20048;-77
2022/01/25 12:27:55;;;;;;;92.03;39.97;;;;;;;3.41;100.00;103337.94;10489488;28;20028;-75
2022/01/25 12:33:04;;;;;;;101.03;41.45;;;;;;;3.43;100.00;103349.56;10489624;28;20380;-77
2022/01/25 12:38:09;;;;;;;94.07;37.97;;;;;;;3.41;100.00;103339.78;10493914;28;20046;-76
2022/01/25 12:43:18;;;;;;;95.68;37.70;;;;;;;3.52;100.00;103341.50;10462360;28;20047;-76
2022/01/25 12:48:21;;;;;;;97.97;40.95;;;;;;;3.41;100.00;103340.66;10426699;28;20042;-76
2022/01/25 12:53:24;;;;;;;109.85;42.00;;;;;;;3.39;100.00;103337.25;10425344;28;20049;-76
2022/01/25 12:58:26;;;;;;;110.15;41.15;;;;;;;3.42;100.00;103326.03;10463287;28;20095;-76
2022/01/25 13:03:32;;;;;;;100.75;40.45;;;;;;;3.51;100.00;103323.44;10446252;28;20028;-76
2022/01/25 13:08:35;;;;;;;105.23;41.97;;;;;;;3.44;100.00;103337.63;10420789;28;20041;-76
2022/01/25 13:13:45;;;;;;;115.85;43.95;;;;;;;3.48;100.00;103329.19;10380303;28;20036;-76
2022/01/25 13:18:45;;;;;;;101.70;41.03;;;;;;;3.41;100.00;103329.78;10445428;28;20097;-76
2022/01/25 13:23:50;;;;;;;91.50;38.90;;;;;;;3.43;100.00;103327.78;10460981;28;20028;-77
2022/01/25 13:28:54;;;;;;;88.30;38.53;;;;;;;3.44;100.00;103315.00;10461286;28;20408;-76
2022/01/25 13:34:00;;;;;;;104.20;39.28;;;;;;;3.38;100.00;103316.44;10400897;28;20057;-75
2022/01/25 13:39:01;;;;;;;100.25;40.53;;;;;;;3.33;100.00;103307.88;10428011;28;20033;-76
2022/01/25 13:49:21;;;;;;;93.38;37.78;;;;;;;3.36;100.00;103299.38;10411198;28;20037;-76
2022/01/25 13:54:23;;;;;;;96.50;38.30;;;;;;;3.35;100.00;103297.69;10427350;28;20046;-76
2022/01/25 13:59:25;;;;;;;101.20;39.20;;;;;;;3.29;100.00;103292.84;10396190;28;20040;-76
2022/01/25 14:04:29;;;;;;;100.75;39.20;;;;;;;3.33;100.00;103285.19;10419575;28;20049;-76
2022/01/25 14:09:33;;;;;;;99.07;38.80;;;;;;;3.26;100.00;103279.50;10397418;28;20037;-75
2022/01/25 14:25:34;;;;;;;97.03;37.40;;;;;;;3.16;100.00;103281.38;10422939;28;20033;-75
2022/01/25 14:30:36;;;;;;;103.35;39.30;;;;;;;3.18;100.00;103276.66;10434835;28;20044;-77
2022/01/25 14:35:55;;;;;;;102.18;38.95;;;;;;;3.23;100.00;103293.41;10416436;28;20036;-75
2022/01/25 14:41:00;;;;;;;92.72;38.17;;;;;;;3.30;100.00;103299.97;10411495;28;20029;-75
2022/01/25 14:46:13;;;;;;;96.30;37.55;;;;;;;3.27;100.00;103305.72;10423825;28;20029;-75
2022/01/25 14:51:13;;;;;;;97.00;38.50;;;;;;;3.27;100.00;103294.00;10429075;28;20432;-76
2022/01/25 14:56:16;;;;;;;98.72;37.85;;;;;;;3.26;100.00;103293.09;10428912;28;20048;-75
2022/01/25 15:01:16;;;;;;;99.53;39.20;;;;;;;3.20;100.00;103300.03;10429745;28;20033;-75
2022/01/25 15:06:17;;;;;;;91.55;35.40;;;;;;;3.21;100.00;103298.16;10428530;28;20024;-75
2022/01/25 15:11:19;;;;;;;97.82;41.60;;;;;;;3.21;100.00;103284.53;10454729;28;20017;-75
2022/01/25 15:16:21;;;;;;;103.78;42.08;;;;;;;3.23;100.00;103282.53;10454243;28;20056;-75
2022/01/25 15:21:21;;;;;;;102.63;40.75;;;;;;;3.15;100.00;103275.09;10438235;28;20037;-76
2022/01/25 15:26:23;;;;;;;104.63;41.53;;;;;;;3.09;100.00;103280.25;10456619;28;20387;-75
2022/01/25 15:31:24;;;;;;;99.82;38.08;;;;;;;2.68;100.00;103211.56;10468867;28;20025;-76
2022/01/25 15:36:25;;;;;;;112.72;40.40;;;;;;;2.95;100.00;103259.78;10397983;28;20451;-76
2022/01/25 15:41:32;;;;;;;100.60;41.45;;;;;;;3.08;100.00;103278.53;10410460;28;20072;-75
2022/01/25 15:46:55;;;;;;;108.93;41.15;;;;;;;3.00;100.00;103263.78;10411753;28;20173;-75
2022/01/25 15:51:53;;;;;;;122.07;40.60;;;;;;;3.05;100.00;103268.78;10428607;28;20033;-75
2022/01/25 15:56:54;;;;;;;111.78;43.05;;;;;;;2.99;100.00;103259.34;10396697;28;20041;-75
2022/01/25 16:01:57;;;;;;;100.05;41.08;;;;;;;2.93;100.00;103270.81;10462133;28;20053;-75
2022/01/25 16:06:57;;;;;;;106.10;42.72;;;;;;;2.92;100.00;103271.81;10452680;28;20738;-75
2022/01/25 16:11:58;;;;;;;99.97;38.75;;;;;;;2.93;100.00;103265.38;10420483;28;20049;-75
2022/01/25 16:16:58;;;;;;;100.10;39.63;;;;;;;2.87;100.00;103265.94;10401374;28;21466;-76
2022/01/25 16:21:59;;;;;;;112.35;43.60;;;;;;;2.68;100.00;103222.44;10439263;28;20033;-75
2022/01/25 16:26:59;;;;;;;103.93;41.97;;;;;;;2.89;100.00;103257.63;10441619;28;20076;-75
2022/01/25 16:32:00;;;;;;;107.70;39.20;;;;;;;2.87;100.00;103255.06;10437085;28;20025;-76
2022/01/25 16:37:00;;;;;;;109.45;40.63;;;;;;;2.90;100.00;103262.94;10438782;28;20028;-75
2022/01/25 16:42:01;;;;;;;107.32;40.13;;;;;;;2.89;100.00;103266.66;10443559;28;20132;-75
2022/01/25 16:47:02;;;;;;;109.95;39.28;;;;;;;2.88;100.00;103250.50;10430311;28;20343;-75
2022/01/25 16:52:03;;;;;;;110.53;41.90;;;;;;;2.88;100.00;103254.06;10464973;28;20049;-75
2022/01/25 16:57:03;;;;;;;116.53;42.10;;;;;;;2.87;100.00;103255.06;10464950;28;20043;-74
2022/01/25 17:02:10;;;;;;;117.43;41.97;;;;;;;2.88;100.00;103243.19;10455335;28;20040;-75
2022/01/25 17:07:10;;;;;;;;;;;;;;;2.87;100.00;103249.63;10444972;28;20087;-75
2022/01/25 17:12:11;;;;;;;107.66;38.00;;;;;;;2.84;100.00;103244.47;10461143;28;19969;-75
2022/01/25 17:17:11;;;;;;;127.13;47.97;;;;;;;2.88;100.00;103251.34;10426393;28;20052;-75
2022/01/25 17:22:12;;;;;;;113.10;41.30;;;;;;;2.83;100.00;103237.31;10461924;28;20025;-74
2022/01/25 17:27:13;;;;;;;113.05;42.40;;;;;;;2.86;100.00;103247.06;10443470;28;20033;-75
2022/01/25 17:32:13;;;;;;;114.93;44.58;;;;;;;2.77;100.00;103238.75;10458881;28;20037;-75
2022/01/25 17:37:16;;;;;;;113.25;42.55;;;;;;;2.75;100.00;103231.72;10442663;28;20067;-74
2022/01/25 17:42:16;;;;;;;114.53;40.58;;;;;;;2.80;100.00;103248.50;10459498;28;20032;-74
2022/01/25 17:47:17;;;;;;;114.95;43.90;;;;;;;2.81;100.00;103261.06;10456403;28;20055;-74
2022/01/25 17:52:17;;;;;;;115.68;41.38;;;;;;;2.79;100.00;103253.09;10427559;28;20045;-74
2022/01/25 17:57:18;;;;;;;100.65;40.47;;;;;;;2.80;100.00;103253.94;10463473;28;20507;-75
2022/01/25 18:02:26;;;;;;;110.00;41.00;;;;;;;2.81;100.00;103255.63;10445359;28;20061;-74
2022/01/25 18:07:26;;;;;;;108.05;39.40;;;;;;;2.79;100.00;103268.53;10461725;28;20542;-75
2022/01/25 18:12:27;;;;;;;111.47;42.45;;;;;;;2.67;100.00;103256.06;10460462;28;20025;-75
2022/01/25 18:17:28;;;;;;;114.47;42.22;;;;;;;2.75;100.00;103248.94;10428360;28;20112;-75
2022/01/25 18:22:34;;;;;;;126.60;45.20;;;;;;;2.76;100.00;103268.81;10456203;28;20066;-75
2022/01/25 18:27:36;;;;;;;117.75;41.88;;;;;;;2.54;100.00;103227.34;10452338;28;20029;-75
2022/01/25 18:32:36;;;;;;;119.75;41.92;;;;;;;2.80;100.00;103264.81;10437716;28;20126;-75
2022/01/25 18:37:37;;;;;;;114.88;45.13;;;;;;;2.79;100.00;103268.53;10437921;28;20503;-74
2022/01/25 18:42:37;;;;;;;116.22;41.60;;;;;;;2.74;100.00;103265.38;10448360;28;20400;-74
2022/01/25 18:47:39;;;;;;;115.40;42.30;;;;;;;2.76;100.00;103269.69;10449645;28;20029;-74
2022/01/25 18:52:40;;;;;;;116.50;42.00;;;;;;;2.77;100.00;103275.97;10453233;28;20054;-74
2022/01/25 18:57:41;;;;;;;118.32;44.22;;;;;;;2.74;100.00;103281.72;10454600;28;20487;-75
2022/01/25 19:02:43;;;;;;;105.80;40.22;;;;;;;2.65;100.00;103271.69;10456651;28;20025;-74
2022/01/25 19:07:46;;;;;;;109.90;41.17;;;;;;;2.68;100.00;103276.84;10421272;28;20111;-74
2022/01/25 19:12:47;;;;;;;102.00;39.50;;;;;;;2.72;100.00;103283.72;10442251;28;20033;-75
2022/01/25 19:17:49;;;;;;;120.05;45.28;;;;;;;2.64;100.00;103287.16;10459838;28;20036;-75
2022/01/25 19:22:49;;;;;;;112.70;40.38;;;;;;;2.59;100.00;103284.84;10459511;28;20033;-75
2022/01/25 19:27:50;;;;;;;101.20;41.00;;;;;;;2.56;100.00;103279.72;10425286;28;20041;-74
2022/01/25 19:32:58;;;;;;;99.38;38.97;;;;;;;2.68;100.00;103293.16;10458258;28;20041;-75
2022/01/25 19:38:01;;;;;;;99.38;37.20;;;;;;;2.62;100.00;103290.03;10459216;28;20043;-75
2022/01/25 19:43:02;;;;;;;109.05;40.00;;;;;;;2.68;100.00;103287.72;10441854;28;20081;-74
2022/01/25 19:48:02;;;;;;;111.93;40.55;;;;;;;2.65;100.00;103285.28;10458677;28;20029;-74
2022/01/25 19:53:06;;;;;;;104.78;39.47;;;;;;;2.58;100.00;103266.84;10459437;28;20064;-75
2022/01/25 19:58:08;;;;;;;97.68;39.28;;;;;;;2.57;100.00;103262.38;10442261;28;20044;-75
2022/01/25 20:03:09;;;;;;;113.15;43.28;;;;;;;2.63;100.00;103263.69;10424545;28;20029;-75
2022/01/25 20:08:09;;;;;;;102.63;37.78;;;;;;;2.55;100.00;103244.50;10458391;28;20029;-75
2022/01/25 20:13:10;;;;;;;108.82;42.75;;;;;;;2.62;100.00;103251.94;10458054;28;20033;-75
2022/01/25 20:18:11;;;;;;;124.47;43.38;;;;;;;2.58;100.00;103247.81;10466946;28;20021;-75
2022/01/25 20:28:42;;;;;;;119.18;44.25;;;;;;;2.57;100.00;103258.81;10446890;28;20044;-74
2022/01/25 20:33:45;;;;;;;113.65;42.45;;;;;;;2.54;100.00;103242.75;10465052;28;20134;-74
2022/01/25 20:38:47;;;;;;;119.43;42.55;;;;;;;2.60;100.00;103250.34;10449637;28;20090;-74
2022/01/25 20:43:48;;;;;;;119.28;43.22;;;;;;;2.59;100.00;103251.38;10448666;28;20032;-74
2022/01/25 20:48:48;;;;;;;123.72;44.03;;;;;;;2.52;100.00;103229.34;10464153;28;20036;-75
2022/01/25 20:53:49;;;;;;;129.63;47.75;;;;;;;2.58;100.00;103228.75;10464153;28;20041;-74
2022/01/25 20:58:51;;;;;;;121.88;44.63;;;;;;;2.51;100.00;103221.31;10464518;28;20033;-74
2022/01/25 21:09:20;;;;;;;129.43;46.50;;;;;;;2.52;100.00;103223.91;10441731;28;20136;-74
2022/01/25 21:14:21;;;;;;;135.30;44.95;;;;;;;2.54;100.00;103224.63;10448314;28;20996;-74
2022/01/25 21:19:22;;;;;;;131.35;48.22;;;;;;;2.58;100.00;103222.44;10446639;28;20065;-74
2022/01/25 21:24:22;;;;;;;126.43;44.67;;;;;;;2.49;100.00;103213.28;10464575;28;20025;-74
2022/01/25 21:29:23;;;;;;;121.00;41.47;;;;;;;2.52;100.00;103221.19;10444750;28;20029;-74
2022/01/25 21:34:23;;;;;;;126.63;40.05;;;;;;;2.44;100.00;103215.59;10465361;28;20055;-74
2022/01/25 21:39:24;;;;;;;124.28;44.97;;;;;;;2.54;100.00;103226.44;10456741;28;20501;-74
2022/01/25 21:44:25;;;;;;;122.97;38.33;;;;;;;2.43;100.00;103219.31;10474607;28;20021;-73
2022/01/25 21:49:26;;;;;;;113.78;41.90;;;;;;;2.52;100.00;103229.34;10457706;28;20033;-74
2022/01/25 21:54:26;;;;;;;112.80;38.67;;;;;;;2.52;100.00;103239.34;10490163;28;20048;-74
2022/01/25 21:59:27;;;;;;;119.25;38.85;;;;;;;2.45;100.00;103241.78;10440838;28;20100;-73
2022/01/25 22:04:32;;;;;;;124.32;42.55;;;;;;;2.46;100.00;103240.78;10474865;28;20029;-73
2022/01/25 22:09:36;;;;;;;95.60;33.30;;;;;;;2.42;100.00;103233.91;10473807;28;20041;-74
2022/01/25 22:14:41;;;;;;;120.88;42.15;;;;;;;2.48;100.00;103240.63;10465628;28;20029;-74
2022/01/25 22:19:42;;;;;;;117.32;39.92;;;;;;;2.48;100.00;103243.34;10427013;28;20639;-74
2022/01/25 22:24:42;;;;;;;126.07;41.45;;;;;;;2.47;100.00;103242.47;10433051;28;20051;-74
2022/01/25 22:29:43;;;;;;;126.53;40.13;;;;;;;2.51;100.00;103257.50;10415081;28;20033;-74
2022/01/25 22:34:43;;;;;;;117.03;39.05;;;;;;;2.50;100.00;103253.09;10431812;28;20038;-75
2022/01/25 22:39:44;;;;;;;116.05;40.67;;;;;;;2.48;100.00;103243.34;10430777;28;20444;-74
2022/01/25 22:44:49;;;;;;;119.57;39.10;;;;;;;2.47;100.00;103247.06;10432168;28;20440;-74
2022/01/25 22:49:50;;;;;;;111.40;38.55;;;;;;;2.46;100.00;103239.91;10431106;28;20044;-74
2022/01/25 22:54:51;;;;;;;106.05;39.80;;;;;;;2.53;100.00;103247.34;10413898;28;20064;-74
2022/01/25 22:59:51;;;;;;;105.65;38.75;;;;;;;2.54;100.00;103243.66;10430520;28;20029;-74
2022/01/25 23:04:53;;;;;;;94.95;35.70;;;;;;;2.54;100.00;103234.59;10430977;28;20022;-74
2022/01/25 23:09:55;;;;;;;107.45;38.70;;;;;;;2.55;100.00;103228.19;10430545;28;20056;-74
2022/01/25 23:15:02;;;;;;;95.93;34.40;;;;;;;2.51;100.00;103219.44;10429633;28;20037;-74
2022/01/25 23:20:14;;;;;;;94.45;34.22;;;;;;;2.49;100.00;103224.16;10414490;28;20476;-74
2022/01/25 23:25:15;;;;;;;111.78;38.03;;;;;;;2.45;100.00;103225.44;10414233;28;20075;-74
2022/01/25 23:30:24;;;;;;;97.93;34.30;;;;;;;2.47;100.00;103223.44;10428989;28;20033;-74
2022/01/25 23:35:31;;;;;;;120.82;35.72;;;;;;;2.44;100.00;103221.03;10429464;28;20400;-74
2022/01/25 23:40:47;;;;;;;111.10;37.00;;;;;;;2.38;100.00;103213.44;10430330;28;20021;-74
2022/01/25 23:45:50;;;;;;;105.75;37.10;;;;;;;2.37;100.00;103217.16;10403969;28;20251;-74
2022/01/25 23:51:15;;;;;;;107.78;36.58;;;;;;;2.36;100.00;103218.16;10388922;28;20044;-73
